Time;durP1;ratioP1;P1;durP2;ratioP2;P2;SDS_P1;SDS_P2;PMS_P1;PMS_P2;Temp;Humidity;BMP_temperature;BMP_pressure;BME280_temperature;BME280_humidity;BME280_pressure;Samples;Min_cycle;Max_cycle;Signal;HPM_P1;HPM_P2
2021/07/18 00:00:35;;;;;;;5.32;3.80;;;23.20;66.40;;;;;;5002592;28;20543;-62
2021/07/18 00:03:01;;;;;;;4.20;3.80;;;23.20;66.40;;;;;;5001594;28;20509;-62
2021/07/18 00:05:27;;;;;;;3.80;3.40;;;23.30;66.50;;;;;;5002756;28;20794;-62
2021/07/18 00:07:52;;;;;;;4.50;3.80;;;23.20;66.50;;;;;;5002632;28;20482;-62
2021/07/18 00:10:18;;;;;;;4.18;3.60;;;23.20;66.50;;;;;;5002403;28;20881;-62
2021/07/18 00:12:44;;;;;;;4.70;3.77;;;23.20;66.40;;;;;;5002457;28;20413;-62
2021/07/18 00:15:12;;;;;;;4.25;3.85;;;23.20;66.40;;;;;;5003074;28;20404;-62
2021/07/18 00:17:38;;;;;;;4.10;3.70;;;23.20;66.50;;;;;;5002621;28;20420;-62
2021/07/18 00:20:10;;;;;;;4.03;3.63;;;23.20;66.40;;;;;;5003177;28;20385;-62
2021/07/18 00:22:35;;;;;;;4.20;3.80;;;23.20;66.40;;;;;;5002189;28;20435;-62
2021/07/18 00:25:01;;;;;;;4.30;3.70;;;23.20;66.50;;;;;;5000692;28;20420;-61
2021/07/18 00:27:27;;;;;;;4.25;3.85;;;23.20;66.30;;;;;;5002543;28;20401;-62
2021/07/18 00:29:53;;;;;;;4.15;3.75;;;23.20;66.40;;;;;;5002669;28;20487;-62
2021/07/18 00:32:18;;;;;;;4.18;3.78;;;23.20;66.30;;;;;;5002204;28;20488;-62
2021/07/18 00:34:44;;;;;;;4.40;4.00;;;23.20;66.30;;;;;;5002653;28;20839;-62
2021/07/18 00:37:10;;;;;;;4.20;3.80;;;23.20;66.30;;;;;;5006311;28;20428;-62
2021/07/18 00:39:36;;;;;;;4.30;3.90;;;23.20;66.30;;;;;;5006472;28;20405;-62
2021/07/18 00:42:02;;;;;;;3.63;3.33;;;23.20;66.40;;;;;;5006193;28;20774;-63
2021/07/18 00:44:27;;;;;;;4.20;3.80;;;23.20;66.50;;;;;;5006236;28;20427;-62
2021/07/18 00:46:53;;;;;;;5.22;4.00;;;23.20;66.40;;;;;;5006160;28;20399;-62
2021/07/18 00:49:19;;;;;;;4.00;3.63;;;23.20;66.30;;;;;;5004941;28;20495;-62
2021/07/18 00:51:44;;;;;;;4.38;3.75;;;23.20;66.30;;;;;;5005777;28;20401;-62
2021/07/18 00:54:10;;;;;;;4.63;4.23;;;23.20;66.30;;;;;;5006429;28;20892;-62
2021/07/18 00:56:37;;;;;;;4.57;4.18;;;23.20;66.30;;;;;;5005424;28;20408;-62
2021/07/18 00:59:03;;;;;;;4.20;3.80;;;23.20;66.20;;;;;;5005926;28;20396;-63
2021/07/18 01:01:28;;;;;;;4.63;4.22;;;23.20;66.30;;;;;;5005999;28;20455;-62
2021/07/18 01:03:55;;;;;;;4.90;4.27;;;23.20;66.30;;;;;;5005875;28;20408;-62
2021/07/18 01:06:21;;;;;;;4.80;3.95;;;23.20;66.30;;;;;;5005666;28;20395;-63
2021/07/18 01:08:47;;;;;;;4.60;4.20;;;23.20;66.30;;;;;;5005522;28;20396;-62
2021/07/18 01:11:13;;;;;;;4.80;4.30;;;23.20;66.30;;;;;;5005743;28;21407;-62
2021/07/18 01:13:38;;;;;;;4.82;4.32;;;23.10;66.30;;;;;;5005774;28;20404;-62
2021/07/18 01:16:05;;;;;;;4.53;4.13;;;23.20;66.30;;;;;;5005409;28;20404;-62
2021/07/18 01:18:31;;;;;;;5.05;4.55;;;23.10;66.30;;;;;;5005102;28;20425;-62
2021/07/18 01:20:56;;;;;;;4.70;4.30;;;23.10;66.20;;;;;;5004019;28;20427;-62
2021/07/18 01:23:22;;;;;;;4.40;4.00;;;23.20;66.30;;;;;;5005286;28;20401;-62
2021/07/18 01:25:52;;;;;;;4.20;3.80;;;23.10;66.20;;;;;;5005293;28;20928;-62
2021/07/18 01:28:19;;;;;;;4.55;4.15;;;23.10;66.20;;;;;;5005011;28;20903;-62
2021/07/18 01:30:45;;;;;;;4.28;3.88;;;23.10;66.50;;;;;;5004776;28;20397;-62
2021/07/18 01:33:11;;;;;;;4.57;4.18;;;23.10;66.30;;;;;;5005387;28;20746;-62
2021/07/18 01:35:37;;;;;;;4.57;4.18;;;23.10;66.40;;;;;;5005047;28;20400;-62
2021/07/18 01:38:06;;;;;;;4.88;4.30;;;23.10;66.30;;;;;;5005208;28;20474;-62
2021/07/18 01:40:32;;;;;;;5.20;4.70;;;23.10;66.30;;;;;;5004403;28;20495;-62
2021/07/18 01:42:57;;;;;;;4.60;4.20;;;23.10;66.30;;;;;;5005030;28;20427;-62
2021/07/18 01:45:23;;;;;;;5.13;4.53;;;23.10;66.30;;;;;;5005370;28;20475;-62
2021/07/18 01:47:49;;;;;;;4.95;4.40;;;23.10;66.20;;;;;;5003610;28;20389;-62
2021/07/18 01:50:15;;;;;;;5.03;4.53;;;23.10;66.20;;;;;;5005269;28;21421;-62
2021/07/18 01:52:43;;;;;;;5.00;4.47;;;23.10;66.30;;;;;;5004169;28;20401;-62
2021/07/18 01:55:09;;;;;;;5.13;4.50;;;23.10;66.30;;;;;;5005055;28;20385;-62
2021/07/18 01:57:35;;;;;;;5.25;4.50;;;23.10;66.10;;;;;;5003782;28;20427;-62
2021/07/18 02:00:00;;;;;;;5.07;4.60;;;23.10;66.20;;;;;;5004932;28;20385;-62
2021/07/18 02:02:26;;;;;;;5.18;4.68;;;23.10;66.10;;;;;;5004719;28;20455;-62
2021/07/18 02:04:52;;;;;;;4.80;4.30;;;23.10;66.20;;;;;;5004866;28;20389;-62
2021/07/18 02:07:17;;;;;;;4.93;4.43;;;23.10;66.00;;;;;;5004637;28;20389;-62
2021/07/18 02:09:44;;;;;;;4.90;4.37;;;23.10;66.20;;;;;;5004260;28;21217;-62
2021/07/18 02:12:10;;;;;;;4.50;4.10;;;23.10;66.20;;;;;;5003196;28;20397;-62
2021/07/18 02:14:38;;;;;;;4.82;4.32;;;23.10;66.10;;;;;;5003994;28;20386;-62
2021/07/18 02:17:04;;;;;;;4.43;4.03;;;23.10;66.70;;;;;;5004269;28;20486;-62
2021/07/18 02:19:30;;;;;;;4.90;4.47;;;23.10;65.90;;;;;;5004036;28;20811;-62
2021/07/18 02:21:57;;;;;;;4.75;4.10;;;23.10;66.10;;;;;;5004163;28;20393;-62
2021/07/18 02:24:22;;;;;;;4.43;4.03;;;23.10;66.10;;;;;;5004058;28;20426;-62
2021/07/18 02:26:49;;;;;;;4.90;4.40;;;23.10;65.90;;;;;;5004192;28;20443;-62
2021/07/18 02:29:14;;;;;;;4.90;4.40;;;23.10;66.00;;;;;;5004281;28;20528;-62
2021/07/18 02:31:41;;;;;;;4.70;4.30;;;23.10;66.00;;;;;;5004111;28;20457;-62
2021/07/18 02:34:06;;;;;;;5.28;4.78;;;23.10;65.80;;;;;;5004703;28;20412;-62
2021/07/18 02:36:33;;;;;;;5.00;4.50;;;23.10;65.90;;;;;;5003342;28;20987;-62
2021/07/18 02:38:59;;;;;;;5.00;4.50;;;23.10;65.80;;;;;;5004129;28;20520;-62
2021/07/18 02:41:26;;;;;;;4.97;4.30;;;23.10;66.10;;;;;;5003927;28;20409;-62
2021/07/18 02:43:52;;;;;;;5.00;4.50;;;23.10;65.90;;;;;;5003867;28;20881;-62
2021/07/18 02:46:18;;;;;;;4.60;4.13;;;23.00;65.90;;;;;;5003972;28;20447;-62
2021/07/18 02:48:44;;;;;;;4.90;4.20;;;23.10;66.10;;;;;;5003210;28;20392;-62
2021/07/18 02:51:09;;;;;;;4.90;4.40;;;23.00;65.90;;;;;;5004606;28;20447;-62
2021/07/18 02:53:35;;;;;;;4.53;4.13;;;23.10;66.00;;;;;;5003855;28;20400;-62
2021/07/18 02:56:00;;;;;;;4.83;4.33;;;23.00;66.00;;;;;;5003908;28;20518;-62
2021/07/18 02:58:26;;;;;;;4.30;3.90;;;23.00;66.50;;;;;;5002831;28;20448;-62
2021/07/18 03:00:52;;;;;;;4.50;4.10;;;23.00;65.80;;;;;;5002392;28;20396;-62
2021/07/18 03:03:19;;;;;;;4.35;3.85;;;23.10;65.80;;;;;;5018831;28;20401;-62
2021/07/18 03:05:45;;;;;;;4.70;4.30;;;23.00;65.90;;;;;;5003438;28;20742;-62
2021/07/18 03:08:10;;;;;;;4.50;4.10;;;23.00;66.00;;;;;;5003610;28;20893;-67
2021/07/18 03:10:36;;;;;;;4.50;4.10;;;23.00;66.00;;;;;;5002908;28;20391;-62
2021/07/18 03:13:02;;;;;;;4.90;4.40;;;23.00;65.70;;;;;;5003678;28;20495;-62
2021/07/18 03:15:27;;;;;;;4.67;4.23;;;23.00;66.00;;;;;;5003567;28;20788;-62
2021/07/18 03:17:53;;;;;;;4.15;3.75;;;23.00;65.80;;;;;;5003625;28;20412;-62
2021/07/18 03:20:19;;;;;;;4.80;4.23;;;23.00;65.80;;;;;;5003837;28;20455;-62
2021/07/18 03:22:46;;;;;;;4.60;4.10;;;23.00;65.90;;;;;;5002977;28;20467;-62
2021/07/18 03:25:12;;;;;;;4.50;4.10;;;23.00;65.80;;;;;;5003515;28;20439;-62
2021/07/18 03:27:39;;;;;;;4.32;3.92;;;23.00;65.70;;;;;;5003086;28;20401;-62
2021/07/18 03:30:08;;;;;;;4.95;4.45;;;23.00;65.70;;;;;;5003550;28;20397;-62
2021/07/18 03:32:34;;;;;;;4.25;3.83;;;23.00;65.90;;;;;;5002303;28;20785;-62
2021/07/18 03:35:01;;;;;;;4.40;4.00;;;23.00;65.80;;;;;;5002587;28;20424;-62
2021/07/18 03:37:27;;;;;;;4.10;3.70;;;23.00;65.70;;;;;;5018235;28;20471;-62
2021/07/18 03:39:52;;;;;;;4.10;3.70;;;23.00;65.80;;;;;;5002781;28;20421;-62
2021/07/18 03:42:18;;;;;;;4.53;4.10;;;23.00;65.70;;;;;;5002903;28;20408;-62
2021/07/18 03:44:44;;;;;;;4.40;4.00;;;23.00;65.80;;;;;;5001133;28;20403;-62
2021/07/18 03:47:09;;;;;;;4.18;3.78;;;23.00;65.80;;;;;;5001200;28;20393;-62
2021/07/18 03:49:35;;;;;;;4.40;4.00;;;23.00;65.60;;;;;;5001545;28;20411;-62
2021/07/18 03:52:01;;;;;;;4.30;3.80;;;23.00;65.80;;;;;;5002993;28;20398;-62
2021/07/18 03:54:26;;;;;;;4.60;4.20;;;23.00;65.70;;;;;;5002677;28;20385;-62
2021/07/18 03:56:52;;;;;;;4.30;3.90;;;23.00;65.70;;;;;;5002404;28;20909;-62
2021/07/18 03:59:18;;;;;;;4.20;3.80;;;23.00;65.60;;;;;;5002774;28;20400;-62
2021/07/18 04:01:43;;;;;;;4.45;4.05;;;23.00;65.60;;;;;;5002570;28;20485;-62
2021/07/18 04:04:09;;;;;;;4.32;3.92;;;23.00;65.90;;;;;;5001773;28;20411;-62
2021/07/18 04:06:34;;;;;;;4.47;3.97;;;23.00;65.60;;;;;;5002099;28;20572;-62
2021/07/18 04:09:00;;;;;;;4.20;3.80;;;23.00;65.70;;;;;;5002981;28;20404;-62
2021/07/18 04:11:26;;;;;;;4.20;3.80;;;23.00;65.70;;;;;;5006016;28;20896;-62
2021/07/18 04:13:51;;;;;;;4.45;4.05;;;23.00;65.80;;;;;;5007102;28;20388;-62
2021/07/18 04:16:17;;;;;;;4.20;3.80;;;23.00;65.70;;;;;;5006889;28;20431;-62
2021/07/18 04:18:43;;;;;;;4.10;3.65;;;23.00;65.60;;;;;;5006328;28;20464;-62
2021/07/18 04:21:08;;;;;;;4.18;3.78;;;22.90;65.70;;;;;;5005849;28;20450;-62
2021/07/18 04:23:34;;;;;;;4.10;3.70;;;23.00;65.70;;;;;;5006633;28;20845;-62
2021/07/18 04:25:59;;;;;;;4.05;3.60;;;22.90;65.50;;;;;;5006845;28;20389;-62
2021/07/18 04:28:25;;;;;;;4.90;4.40;;;23.00;65.70;;;;;;5006450;28;20396;-62
2021/07/18 04:30:51;;;;;;;3.92;3.60;;;22.90;65.60;;;;;;5004825;28;20420;-62
2021/07/18 04:33:16;;;;;;;4.03;3.63;;;22.90;65.60;;;;;;5005081;28;20488;-62
2021/07/18 04:35:42;;;;;;;4.05;3.65;;;22.90;65.70;;;;;;5021571;28;20750;-62
2021/07/18 04:38:08;;;;;;;4.03;3.63;;;22.90;65.60;;;;;;5006360;28;20421;-62
2021/07/18 04:40:36;;;;;;;3.90;3.60;;;22.90;65.50;;;;;;5006001;28;20412;-63
2021/07/18 04:43:03;;;;;;;3.90;3.50;;;23.00;65.60;;;;;;5006497;28;20948;-62
2021/07/18 04:45:29;;;;;;;4.00;3.60;;;22.90;65.70;;;;;;5006779;28;20385;-62
2021/07/18 04:47:58;;;;;;;4.03;3.63;;;23.00;65.50;;;;;;5006272;28;20610;-62
2021/07/18 04:50:26;;;;;;;3.78;3.45;;;22.90;65.70;;;;;;5006107;28;20422;-62
2021/07/18 04:52:52;;;;;;;4.20;3.80;;;22.90;65.60;;;;;;5005809;28;20391;-62
2021/07/18 04:55:19;;;;;;;4.05;3.65;;;22.90;65.40;;;;;;5005894;28;20494;-62
2021/07/18 04:57:45;;;;;;;4.20;3.57;;;22.90;65.60;;;;;;5006108;28;20500;-62
2021/07/18 05:00:20;;;;;;;4.40;4.00;;;22.90;65.50;;;;;;5006099;28;20385;-62
2021/07/18 05:02:45;;;;;;;4.10;3.47;;;22.90;65.50;;;;;;5005611;28;20397;-62
2021/07/18 05:05:13;;;;;;;3.47;3.13;;;22.90;65.40;;;;;;5005542;28;20447;-62
2021/07/18 05:07:53;;;;;;;3.70;3.25;;;22.90;65.40;;;;;;5006137;28;20432;-62
2021/07/18 05:10:21;;;;;;;3.73;3.20;;;22.90;65.50;;;;;;5004381;28;21101;-62
2021/07/18 05:12:52;;;;;;;3.60;3.30;;;22.90;65.50;;;;;;5005207;28;20809;-62
2021/07/18 05:15:19;;;;;;;3.65;3.30;;;22.90;65.60;;;;;;5005677;28;20447;-62
2021/07/18 05:17:45;;;;;;;3.40;3.10;;;23.00;65.60;;;;;;5005632;28;21079;-62
2021/07/18 05:20:11;;;;;;;3.40;3.10;;;22.90;65.40;;;;;;5005649;28;20428;-62
2021/07/18 05:22:37;;;;;;;3.60;3.30;;;22.90;65.50;;;;;;5004871;28;20393;-62
2021/07/18 05:25:05;;;;;;;3.63;3.10;;;22.90;65.50;;;;;;5006002;28;20752;-62
2021/07/18 05:27:31;;;;;;;3.63;3.17;;;22.90;65.40;;;;;;5005359;28;20471;-62
2021/07/18 05:29:56;;;;;;;3.50;3.20;;;22.90;65.50;;;;;;5004497;28;20480;-62
2021/07/18 05:32:22;;;;;;;3.60;3.10;;;22.90;65.50;;;;;;5005113;28;20505;-62
2021/07/18 05:34:48;;;;;;;3.42;3.13;;;22.90;65.60;;;;;;5004736;28;20442;-62
2021/07/18 05:37:14;;;;;;;3.55;3.10;;;22.90;65.50;;;;;;5005246;28;20648;-62
2021/07/18 05:39:39;;;;;;;3.67;3.37;;;22.90;65.50;;;;;;5004900;28;20943;-62
2021/07/18 05:42:05;;;;;;;4.13;3.72;;;22.90;65.50;;;;;;5005462;28;20405;-62
2021/07/18 05:44:32;;;;;;;3.93;3.53;;;22.90;65.40;;;;;;5004910;28;21352;-62
2021/07/18 05:46:58;;;;;;;3.88;3.50;;;22.90;65.40;;;;;;5004912;28;20884;-62
2021/07/18 05:49:24;;;;;;;3.80;3.50;;;22.90;65.40;;;;;;5004974;28;20396;-62
2021/07/18 05:51:49;;;;;;;3.55;3.25;;;22.90;65.50;;;;;;5005306;28;20389;-62
2021/07/18 05:54:15;;;;;;;3.60;3.30;;;22.90;65.50;;;;;;5004908;28;20879;-62
2021/07/18 05:56:41;;;;;;;3.80;3.50;;;22.90;65.60;;;;;;5004456;28;20884;-62
2021/07/18 05:59:06;;;;;;;3.58;3.28;;;22.90;65.60;;;;;;5005102;28;20396;-62
2021/07/18 06:01:32;;;;;;;3.53;3.23;;;22.90;65.40;;;;;;5004573;28;20400;-63
2021/07/18 06:03:58;;;;;;;3.45;3.15;;;22.90;65.40;;;;;;5003727;28;20409;-63
2021/07/18 06:06:23;;;;;;;3.40;3.10;;;22.90;65.50;;;;;;5003814;28;20490;-63
2021/07/18 06:08:49;;;;;;;3.10;2.80;;;22.90;65.50;;;;;;5003661;28;20401;-62
2021/07/18 06:11:15;;;;;;;3.30;3.00;;;22.90;65.30;;;;;;5002704;28;20490;-62
2021/07/18 06:13:41;;;;;;;3.20;2.90;;;22.90;65.40;;;;;;5002961;28;20400;-62
2021/07/18 06:16:06;;;;;;;3.37;3.00;;;22.90;65.40;;;;;;5004100;28;20887;-62
2021/07/18 06:18:32;;;;;;;3.22;2.92;;;22.90;65.80;;;;;;5003841;28;20421;-62
2021/07/18 06:20:58;;;;;;;3.20;2.80;;;22.90;65.40;;;;;;5003933;28;20395;-62
2021/07/18 06:23:24;;;;;;;3.53;3.23;;;22.90;65.70;;;;;;5004067;28;20396;-62
2021/07/18 06:25:49;;;;;;;3.70;3.20;;;22.90;65.60;;;;;;5004002;28;20396;-62
2021/07/18 06:28:15;;;;;;;3.30;3.00;;;22.90;65.40;;;;;;5002565;28;20405;-62
2021/07/18 06:30:41;;;;;;;3.20;2.90;;;22.90;65.50;;;;;;5002596;28;20397;-62
2021/07/18 06:33:06;;;;;;;3.50;3.08;;;22.90;65.40;;;;;;5002918;28;20764;-62
2021/07/18 06:35:32;;;;;;;3.73;3.17;;;22.90;65.20;;;;;;5003924;28;20487;-62
2021/07/18 06:37:57;;;;;;;3.03;2.72;;;22.90;65.40;;;;;;5003710;28;20432;-62
2021/07/18 06:40:23;;;;;;;2.97;2.67;;;22.90;65.40;;;;;;5003881;28;20401;-62
2021/07/18 06:42:49;;;;;;;3.05;2.75;;;22.90;65.30;;;;;;5001872;28;20415;-62
2021/07/18 06:45:14;;;;;;;5.35;3.40;;;22.90;65.30;;;;;;5003760;28;20837;-62
2021/07/18 06:47:40;;;;;;;5.70;3.70;;;22.90;68.20;;;;;;5002147;28;20974;-62
2021/07/18 06:50:07;;;;;;;4.73;3.73;;;23.00;68.00;;;;;;5003748;28;20396;-62
2021/07/18 06:52:33;;;;;;;6.38;4.38;;;23.00;69.30;;;;;;5002582;28;20404;-62
2021/07/18 06:54:59;;;;;;;5.20;4.70;;;23.00;70.20;;;;;;5003124;28;20397;-62
2021/07/18 06:57:25;;;;;;;7.22;4.60;;;23.10;70.30;;;;;;5002582;28;20424;-62
2021/07/18 06:59:51;;;;;;;5.05;4.45;;;23.10;70.80;;;;;;5002608;28;20819;-63
2021/07/18 07:02:17;;;;;;;8.10;4.85;;;23.10;71.00;;;;;;5003364;28;20395;-64
2021/07/18 07:04:43;;;;;;;5.72;4.82;;;23.10;71.30;;;;;;5002895;28;20476;-63
2021/07/18 07:07:09;;;;;;;5.57;4.60;;;23.10;71.50;;;;;;5003407;28;20418;-63
2021/07/18 07:09:36;;;;;;;5.00;4.30;;;23.10;70.20;;;;;;5003937;28;20868;-68
2021/07/18 07:12:02;;;;;;;4.88;4.38;;;23.10;70.20;;;;;;5003188;28;20388;-63
2021/07/18 07:14:28;;;;;;;5.53;4.38;;;23.10;69.80;;;;;;5003002;28;20479;-63
2021/07/18 07:16:53;;;;;;;6.67;4.10;;;23.00;68.10;;;;;;5002449;28;20437;-63
2021/07/18 07:19:20;;;;;;;7.35;3.80;;;23.00;68.60;;;;;;5003609;28;20897;-64
2021/07/18 07:21:45;;;;;;;7.10;4.10;;;23.00;68.30;;;;;;5003317;28;20393;-63
2021/07/18 07:24:11;;;;;;;6.82;4.20;;;23.10;69.00;;;;;;5002947;28;20416;-67
2021/07/18 07:26:37;;;;;;;6.72;4.60;;;23.10;69.70;;;;;;5003097;28;20447;-63
2021/07/18 07:29:04;;;;;;;5.90;4.60;;;23.10;70.10;;;;;;5017992;28;20409;-63
2021/07/18 07:31:30;;;;;;;7.37;4.90;;;23.10;70.20;;;;;;5003379;28;20757;-62
2021/07/18 07:33:56;;;;;;;8.27;4.95;;;23.10;70.20;;;;;;5000622;28;20405;-64
2021/07/18 07:36:22;;;;;;;6.15;5.05;;;23.20;70.90;;;;;;5000687;28;20417;-63
2021/07/18 07:38:48;;;;;;;6.93;5.00;;;23.20;71.20;;;;;;5002378;28;20495;-62
2021/07/18 07:41:13;;;;;;;8.82;5.07;;;23.20;71.10;;;;;;5003554;28;20416;-63
2021/07/18 07:43:39;;;;;;;8.95;5.13;;;23.20;71.30;;;;;;5000700;28;20437;-63
2021/07/18 07:46:05;;;;;;;10.20;4.82;;;23.20;71.20;;;;;;4999136;28;20560;-69
2021/07/18 07:48:31;;;;;;;7.57;5.40;;;23.20;71.20;;;;;;5004384;28;20393;-65
2021/07/18 07:50:57;;;;;;;6.57;5.28;;;23.20;71.70;;;;;;5002063;28;20400;-68
2021/07/18 07:53:24;;;;;;;10.00;5.43;;;23.20;71.70;;;;;;5003265;28;21179;-63
2021/07/18 07:55:51;;;;;;;10.40;5.78;;;23.20;71.60;;;;;;5003295;28;20479;-65
2021/07/18 07:58:17;;;;;;;6.93;5.63;;;23.30;72.30;;;;;;5018296;28;21023;-63
2021/07/18 08:00:43;;;;;;;7.85;5.55;;;23.30;72.70;;;;;;5000608;28;20389;-64
2021/07/18 08:03:09;;;;;;;10.88;6.00;;;23.30;72.60;;;;;;5002152;28;20467;-64
2021/07/18 08:05:35;;;;;;;7.60;5.65;;;23.30;72.80;;;;;;5002556;28;20400;-63
2021/07/18 08:08:02;;;;;;;7.28;5.97;;;23.40;73.30;;;;;;5002192;28;20404;-64
2021/07/18 08:10:28;;;;;;;7.22;5.47;;;23.30;73.20;;;;;;5002755;28;20387;-63
2021/07/18 08:12:54;;;;;;;7.32;5.63;;;23.30;73.20;;;;;;5001515;28;20401;-63
2021/07/18 08:15:22;;;;;;;5.85;5.25;;;23.30;73.10;;;;;;5001626;28;20389;-64
2021/07/18 08:17:48;;;;;;;7.35;5.07;;;23.30;73.30;;;;;;4999909;28;20428;-63
2021/07/18 08:20:17;;;;;;;7.30;5.18;;;23.30;72.80;;;;;;4999055;28;20774;-63
2021/07/18 08:22:45;;;;;;;6.00;4.55;;;23.40;72.90;;;;;;5000041;28;21187;-63
2021/07/18 08:25:12;;;;;;;6.15;4.82;;;23.40;72.70;;;;;;4998715;28;20388;-62
2021/07/18 08:27:37;;;;;;;6.22;5.10;;;23.30;72.40;;;;;;5001004;28;20419;-63
2021/07/18 08:30:05;;;;;;;5.63;4.60;;;23.40;72.90;;;;;;5001294;28;20756;-63
2021/07/18 08:32:31;;;;;;;6.43;4.28;;;23.40;72.40;;;;;;5000791;28;20432;-63
2021/07/18 08:34:56;;;;;;;6.70;4.40;;;23.40;72.70;;;;;;5000738;28;20435;-63
2021/07/18 08:37:22;;;;;;;5.90;4.03;;;23.40;72.80;;;;;;5000639;28;20499;-65
2021/07/18 08:39:48;;;;;;;7.73;4.30;;;23.40;72.90;;;;;;5000811;28;20424;-65
2021/07/18 08:42:15;;;;;;;5.30;4.13;;;23.40;73.10;;;;;;5001020;28;20400;-69
2021/07/18 08:44:41;;;;;;;5.40;3.97;;;23.40;73.10;;;;;;4999434;28;21051;-63
2021/07/18 08:47:09;;;;;;;13.60;4.60;;;23.40;72.80;;;;;;5001332;28;20407;-62
2021/07/18 08:49:36;;;;;;;16.88;4.53;;;23.40;73.00;;;;;;4999588;28;20455;-63
2021/07/18 08:52:02;;;;;;;11.00;4.30;;;23.40;72.80;;;;;;5001216;28;20397;-63
2021/07/18 08:54:30;;;;;;;8.32;4.22;;;23.40;72.40;;;;;;4995335;28;20749;-67
2021/07/18 08:57:00;;;;;;;6.73;4.37;;;23.30;72.50;;;;;;4997825;28;20420;-63
2021/07/18 08:59:26;;;;;;;7.85;4.53;;;23.30;72.50;;;;;;5000984;28;20409;-64
2021/07/18 09:01:53;;;;;;;7.35;3.90;;;23.30;72.10;;;;;;5003048;28;20392;-63
2021/07/18 09:04:19;;;;;;;6.10;3.92;;;23.40;71.90;;;;;;5000044;28;20441;-64
2021/07/18 09:06:48;;;;;;;9.30;4.05;;;23.30;71.30;;;;;;5003723;28;20400;-63
2021/07/18 09:09:15;;;;;;;6.20;3.92;;;23.30;71.00;;;;;;5004545;28;20439;-63
2021/07/18 09:11:43;;;;;;;8.40;3.88;;;23.30;70.60;;;;;;5019475;28;20389;-62
2021/07/18 09:14:11;;;;;;;5.60;3.50;;;23.30;70.40;;;;;;5002610;28;20396;-63
2021/07/18 09:16:39;;;;;;;6.57;3.67;;;23.30;70.80;;;;;;5003832;28;20778;-63
2021/07/18 09:19:25;;;;;;;7.72;3.83;;;23.20;70.10;;;;;;5004295;28;20416;-63
2021/07/18 09:21:57;;;;;;;6.05;3.78;;;23.20;70.60;;;;;;5004305;28;20389;-63
2021/07/18 09:24:29;;;;;;;4.35;3.38;;;23.20;70.50;;;;;;5004226;28;20393;-64
2021/07/18 09:27:07;;;;;;;6.35;3.58;;;23.20;70.30;;;;;;5003391;28;20428;-62
2021/07/18 09:29:34;;;;;;;6.22;3.42;;;23.20;70.20;;;;;;5004094;28;20968;-64
2021/07/18 09:32:06;;;;;;;4.85;3.25;;;23.20;70.00;;;;;;5004159;28;20405;-63
2021/07/18 09:34:36;;;;;;;5.32;3.40;;;23.20;69.80;;;;;;5004017;28;20393;-63
2021/07/18 09:37:04;;;;;;;3.88;3.28;;;23.20;69.70;;;;;;5003452;28;20440;-63
2021/07/18 09:39:30;;;;;;;4.43;3.13;;;23.20;69.70;;;;;;5003454;28;20413;-63
2021/07/18 09:41:57;;;;;;;5.07;3.07;;;23.20;69.50;;;;;;5001358;28;20396;-63
2021/07/18 09:44:24;;;;;;;4.05;3.08;;;23.20;69.20;;;;;;5002897;28;20393;-63
2021/07/18 09:46:51;;;;;;;5.20;3.33;;;23.20;69.40;;;;;;5000842;28;20473;-63
2021/07/18 09:49:33;;;;;;;4.53;3.33;;;23.20;69.30;;;;;;5002687;28;20408;-63
2021/07/18 09:52:15;;;;;;;4.80;3.33;;;23.20;69.20;;;;;;5003401;28;20934;-63
2021/07/18 09:54:41;;;;;;;3.55;3.20;;;23.30;69.00;;;;;;5003553;28;20927;-63
2021/07/18 09:57:26;;;;;;;3.88;3.10;;;23.20;68.90;;;;;;5002874;28;20452;-63
2021/07/18 09:59:53;;;;;;;4.20;3.20;;;23.20;68.90;;;;;;4999035;28;20401;-63
2021/07/18 10:02:24;;;;;;;3.67;3.25;;;23.20;68.70;;;;;;5002310;28;20457;-62
2021/07/18 10:04:51;;;;;;;4.38;3.00;;;23.30;68.80;;;;;;4998630;28;20385;-64
2021/07/18 10:07:16;;;;;;;3.63;3.20;;;23.20;68.60;;;;;;5001362;28;20905;-63
2021/07/18 10:09:42;;;;;;;5.75;3.20;;;23.20;68.50;;;;;;5002640;28;20474;-63
2021/07/18 10:12:09;;;;;;;3.60;3.03;;;23.20;68.50;;;;;;5003631;28;20401;-62
2021/07/18 10:14:36;;;;;;;3.38;3.08;;;23.30;69.00;;;;;;5003312;28;20471;-63
2021/07/18 10:17:02;;;;;;;3.57;3.20;;;23.30;68.40;;;;;;5003406;28;20570;-62
2021/07/18 10:19:28;;;;;;;5.30;3.27;;;23.30;68.40;;;;;;5001665;28;20399;-62
2021/07/18 10:21:55;;;;;;;3.30;3.00;;;23.20;68.20;;;;;;5003182;28;20388;-63
2021/07/18 10:24:22;;;;;;;3.88;2.78;;;23.20;68.10;;;;;;5003392;28;20547;-63
2021/07/18 10:26:48;;;;;;;3.38;2.78;;;23.30;68.10;;;;;;5003198;28;20396;-62
2021/07/18 10:29:14;;;;;;;3.20;2.90;;;23.30;68.60;;;;;;5002796;28;20753;-62
2021/07/18 10:31:54;;;;;;;5.15;2.90;;;23.30;68.10;;;;;;5003437;28;20896;-62
2021/07/18 10:34:28;;;;;;;3.80;2.90;;;23.30;68.00;;;;;;5003045;28;20412;-63
2021/07/18 10:36:54;;;;;;;3.67;3.00;;;23.30;67.90;;;;;;5002216;28;20416;-64
2021/07/18 10:39:30;;;;;;;3.33;2.80;;;23.30;68.50;;;;;;5002769;28;20478;-63
2021/07/18 10:41:57;;;;;;;4.18;2.72;;;23.30;68.00;;;;;;5002584;28;20400;-64
2021/07/18 10:44:23;;;;;;;2.92;2.63;;;23.30;67.90;;;;;;5002891;28;20400;-63
2021/07/18 10:46:54;;;;;;;3.40;3.00;;;23.30;68.00;;;;;;5002484;28;20762;-63
2021/07/18 10:49:53;;;;;;;5.38;2.90;;;23.30;68.10;;;;;;5002842;28;20401;-62
2021/07/18 10:52:21;;;;;;;3.50;2.60;;;23.40;68.30;;;;;;5002012;28;20451;-62
2021/07/18 10:54:47;;;;;;;5.05;3.10;;;23.30;68.30;;;;;;5001323;28;21466;-63
2021/07/18 10:57:24;;;;;;;3.23;2.53;;;23.30;68.20;;;;;;5001087;28;20504;-63
2021/07/18 10:59:50;;;;;;;28.27;25.52;;;23.40;68.20;;;;;;5001758;28;20440;-63
2021/07/18 11:02:19;;;;;;;219.95;198.48;;;23.40;68.00;;;;;;5002223;28;20869;-63
2021/07/18 11:04:49;;;;;;;138.13;124.63;;;23.40;67.90;;;;;;5002183;28;20454;-64
2021/07/18 11:07:21;;;;;;;105.13;94.90;;;23.40;67.90;;;;;;5001935;28;20407;-64
2021/07/18 11:09:58;;;;;;;115.15;103.95;;;23.40;67.90;;;;;;5002481;28;20979;-62
2021/07/18 11:12:26;;;;;;;80.25;72.47;;;23.40;67.90;;;;;;5002102;28;21228;-63
2021/07/18 11:14:53;;;;;;;71.38;64.63;;;23.50;68.20;;;;;;5002486;28;20385;-63
2021/07/18 11:17:29;;;;;;;68.88;62.22;;;23.60;68.00;;;;;;5002268;28;20459;-62
2021/07/18 11:19:57;;;;;;;65.10;58.72;;;23.60;67.90;;;;;;5001570;28;20446;-63
2021/07/18 11:22:59;;;;;;;65.47;59.15;;;23.70;67.80;;;;;;5002586;28;20958;-63
2021/07/18 11:25:59;;;;;;;71.03;64.32;;;23.70;67.40;;;;;;5002019;28;20439;-63
2021/07/18 11:28:28;;;;;;;102.88;93.07;;;23.70;67.40;;;;;;4998849;28;20404;-62
2021/07/18 11:31:13;;;;;;;81.80;73.93;;;23.70;67.40;;;;;;5001721;28;20399;-63
2021/07/18 11:33:45;;;;;;;79.93;72.35;;;23.70;67.40;;;;;;5001764;28;21167;-62
2021/07/18 11:36:32;;;;;;;81.55;73.65;;;23.70;67.30;;;;;;5001400;28;20466;-63
2021/07/18 11:39:14;;;;;;;80.00;72.43;;;23.70;67.30;;;;;;5001369;28;20432;-62
2021/07/18 11:41:41;;;;;;;77.30;69.87;;;23.70;67.10;;;;;;5001164;28;20811;-62
2021/07/18 11:44:07;;;;;;;74.60;67.60;;;23.80;67.80;;;;;;5000981;28;20404;-62
2021/07/18 11:46:34;;;;;;;71.40;64.50;;;23.80;67.00;;;;;;5000969;28;20895;-62
2021/07/18 11:49:01;;;;;;;68.38;61.88;;;23.80;67.40;;;;;;5000891;28;20885;-62
2021/07/18 11:51:29;;;;;;;68.00;61.80;;;23.80;67.80;;;;;;5001424;28;20392;-62
2021/07/18 11:53:57;;;;;;;68.82;62.30;;;23.90;67.80;;;;;;5001895;28;20400;-62
2021/07/18 11:56:28;;;;;;;68.72;62.13;;;23.90;67.40;;;;;;5001960;28;20389;-61
2021/07/18 11:58:59;;;;;;;65.55;59.35;;;23.90;67.30;;;;;;5001984;28;20503;-62
2021/07/18 12:01:27;;;;;;;66.60;60.47;;;23.90;67.10;;;;;;5000375;28;20483;-61
2021/07/18 12:03:53;;;;;;;61.78;56.17;;;23.90;67.00;;;;;;5001914;28;20480;-68
2021/07/18 12:06:24;;;;;;;56.73;51.43;;;23.90;66.90;;;;;;5001432;28;20412;-61
2021/07/18 12:08:50;;;;;;;50.67;46.03;;;23.90;67.40;;;;;;5001378;28;20468;-63
2021/07/18 12:11:30;;;;;;;48.13;43.42;;;23.90;67.70;;;;;;5001560;28;20413;-63
2021/07/18 12:13:59;;;;;;;42.85;39.05;;;23.90;67.70;;;;;;5001594;28;20889;-61
2021/07/18 12:16:26;;;;;;;40.67;36.88;;;23.90;67.80;;;;;;5001584;28;20423;-61
2021/07/18 12:18:54;;;;;;;39.63;35.92;;;23.90;67.70;;;;;;5001352;28;20424;-61
2021/07/18 12:21:34;;;;;;;34.47;31.33;;;23.90;67.80;;;;;;5001112;28;20400;-61
2021/07/18 12:24:22;;;;;;;32.65;29.65;;;23.90;67.80;;;;;;5001208;28;20400;-62
2021/07/18 12:27:00;;;;;;;30.48;27.67;;;23.90;67.70;;;;;;5000037;28;20456;-62
2021/07/18 12:29:44;;;;;;;27.97;25.27;;;23.90;67.60;;;;;;5016365;28;21345;-61
2021/07/18 12:32:11;;;;;;;26.00;23.63;;;23.90;67.60;;;;;;5003096;28;20503;-61
2021/07/18 12:34:43;;;;;;;24.05;21.85;;;23.90;67.80;;;;;;5004172;28;20411;-61
2021/07/18 12:37:13;;;;;;;22.13;20.10;;;23.90;68.00;;;;;;5004831;28;20416;-60
2021/07/18 12:39:43;;;;;;;20.40;18.60;;;23.90;67.90;;;;;;5005400;28;20416;-62
2021/07/18 12:42:19;;;;;;;19.55;17.83;;;23.90;67.80;;;;;;5005547;28;20387;-68
2021/07/18 12:44:56;;;;;;;18.33;16.63;;;23.90;67.90;;;;;;5003883;28;20737;-61